sensor_id;sensor_type;location;lat;lon;timestamp;P1;durP1;ratioP1;P2;durP2;ratioP2
27921;SDS011;15261;50.356;10.340;2023-01-24T06:47:51;8.20;;;5.70;;
27921;SDS011;15261;50.356;10.340;2023-01-24T06:53:45;7.40;;;6.03;;
27921;SDS011;15261;50.356;10.340;2023-01-24T06:56:10;7.00;;;6.27;;
27921;SDS011;15261;50.356;10.340;2023-01-24T06:58:36;7.27;;;5.87;;
27921;SDS011;15261;50.356;10.340;2023-01-24T07:01:02;7.30;;;6.37;;
27921;SDS011;15261;50.356;10.340;2023-01-24T07:03:28;8.40;;;7.17;;
27921;SDS011;15261;50.356;10.340;2023-01-24T07:05:53;9.17;;;6.20;;
27921;SDS011;15261;50.356;10.340;2023-01-24T07:08:19;7.33;;;6.30;;
27921;SDS011;15261;50.356;10.340;2023-01-24T07:10:45;13.87;;;9.97;;
27921;SDS011;15261;50.356;10.340;2023-01-24T07:13:11;9.43;;;7.50;;
27921;SDS011;15261;50.356;10.340;2023-01-24T07:15:36;10.40;;;8.63;;
27921;SDS011;15261;50.356;10.340;2023-01-24T07:18:09;8.03;;;6.73;;
27921;SDS011;15261;50.356;10.340;2023-01-24T07:20:37;8.13;;;6.43;;
27921;SDS011;15261;50.356;10.340;2023-01-24T07:23:02;9.90;;;8.03;;
27921;SDS011;15261;50.356;10.340;2023-01-24T07:25:28;11.57;;;8.87;;
27921;SDS011;15261;50.356;10.340;2023-01-24T07:27:56;31.13;;;23.37;;
27921;SDS011;15261;50.356;10.340;2023-01-24T07:30:21;10.77;;;8.50;;
27921;SDS011;15261;50.356;10.340;2023-01-24T07:32:47;9.53;;;8.40;;
27921;SDS011;15261;50.356;10.340;2023-01-24T07:35:12;13.07;;;11.50;;
27921;SDS011;15261;50.356;10.340;2023-01-24T07:37:38;9.30;;;8.40;;
27921;SDS011;15261;50.356;10.340;2023-01-24T07:40:04;16.27;;;13.50;;
27921;SDS011;15261;50.356;10.340;2023-01-24T07:42:30;8.27;;;7.20;;
27921;SDS011;15261;50.356;10.340;2023-01-24T07:44:55;7.60;;;6.83;;
27921;SDS011;15261;50.356;10.340;2023-01-24T07:47:22;11.63;;;10.43;;
27921;SDS011;15261;50.356;10.340;2023-01-24T07:49:48;17.07;;;13.87;;
27921;SDS011;15261;50.356;10.340;2023-01-24T07:52:13;9.00;;;7.63;;
27921;SDS011;15261;50.356;10.340;2023-01-24T07:54:39;10.47;;;9.20;;
27921;SDS011;15261;50.356;10.340;2023-01-24T07:57:05;9.00;;;7.87;;
27921;SDS011;15261;50.356;10.340;2023-01-24T07:59:32;9.83;;;8.47;;
27921;SDS011;15261;50.356;10.340;2023-01-24T08:01:58;9.27;;;7.90;;
27921;SDS011;15261;50.356;10.340;2023-01-24T08:04:24;8.40;;;7.50;;
27921;SDS011;15261;50.356;10.340;2023-01-24T08:06:49;8.80;;;7.47;;
27921;SDS011;15261;50.356;10.340;2023-01-24T08:09:33;11.20;;;8.50;;
27921;SDS011;15261;50.356;10.340;2023-01-24T08:11:59;7.50;;;6.53;;
27921;SDS011;15261;50.356;10.340;2023-01-24T08:14:24;7.53;;;6.57;;
27921;SDS011;15261;50.356;10.340;2023-01-24T08:16:50;8.33;;;6.70;;
27921;SDS011;15261;50.356;10.340;2023-01-24T08:19:15;7.87;;;7.07;;
27921;SDS011;15261;50.356;10.340;2023-01-24T08:21:41;7.17;;;6.30;;
27921;SDS011;15261;50.356;10.340;2023-01-24T08:24:06;8.33;;;7.27;;
27921;SDS011;15261;50.356;10.340;2023-01-24T08:26:32;9.67;;;7.67;;
27921;SDS011;15261;50.356;10.340;2023-01-24T08:28:58;9.33;;;7.80;;
27921;SDS011;15261;50.356;10.340;2023-01-24T08:31:24;8.73;;;7.77;;
27921;SDS011;15261;50.356;10.340;2023-01-24T08:33:49;9.37;;;7.67;;
27921;SDS011;15261;50.356;10.340;2023-01-24T08:36:16;8.37;;;7.07;;
27921;SDS011;15261;50.356;10.340;2023-01-24T08:38:44;8.43;;;7.57;;
27921;SDS011;15261;50.356;10.340;2023-01-24T08:41:09;6.83;;;6.13;;
27921;SDS011;15261;50.356;10.340;2023-01-24T08:43:35;6.90;;;5.77;;
27921;SDS011;15261;50.356;10.340;2023-01-24T08:46:01;6.73;;;6.03;;
27921;SDS011;15261;50.356;10.340;2023-01-24T08:48:27;7.33;;;6.30;;
27921;SDS011;15261;50.356;10.340;2023-01-24T08:50:53;6.80;;;5.87;;
27921;SDS011;15261;50.356;10.340;2023-01-24T08:53:19;7.13;;;6.40;;
27921;SDS011;15261;50.356;10.340;2023-01-24T08:55:47;6.27;;;5.50;;
27921;SDS011;15261;50.356;10.340;2023-01-24T08:58:13;7.23;;;6.30;;
27921;SDS011;15261;50.356;10.340;2023-01-24T09:00:38;6.37;;;5.17;;
27921;SDS011;15261;50.356;10.340;2023-01-24T09:03:04;6.10;;;5.50;;
27921;SDS011;15261;50.356;10.340;2023-01-24T09:05:29;6.73;;;5.83;;
27921;SDS011;15261;50.356;10.340;2023-01-24T09:07:56;7.27;;;5.83;;
27921;SDS011;15261;50.356;10.340;2023-01-24T09:10:22;6.20;;;5.60;;
27921;SDS011;15261;50.356;10.340;2023-01-24T09:12:47;6.10;;;5.50;;
27921;SDS011;15261;50.356;10.340;2023-01-24T09:15:13;6.00;;;5.37;;
27921;SDS011;15261;50.356;10.340;2023-01-24T09:17:38;5.50;;;4.90;;
27921;SDS011;15261;50.356;10.340;2023-01-24T09:20:05;5.93;;;5.33;;
27921;SDS011;15261;50.356;10.340;2023-01-24T09:22:31;6.17;;;5.50;;
27921;SDS011;15261;50.356;10.340;2023-01-24T09:24:57;5.83;;;5.30;;
27921;SDS011;15261;50.356;10.340;2023-01-24T09:27:23;6.47;;;5.57;;
27921;SDS011;15261;50.356;10.340;2023-01-24T09:29:48;6.20;;;5.57;;
27921;SDS011;15261;50.356;10.340;2023-01-24T09:32:14;10.03;;;7.27;;
27921;SDS011;15261;50.356;10.340;2023-01-24T09:34:41;7.30;;;6.50;;
27921;SDS011;15261;50.356;10.340;2023-01-24T09:37:11;6.83;;;6.13;;
27921;SDS011;15261;50.356;10.340;2023-01-24T09:39:44;6.20;;;5.60;;
27921;SDS011;15261;50.356;10.340;2023-01-24T09:44:53;9.27;;;6.97;;
27921;SDS011;15261;50.356;10.340;2023-01-24T09:50:21;6.57;;;5.87;;
27921;SDS011;15261;50.356;10.340;2023-01-24T09:52:52;6.73;;;5.70;;
27921;SDS011;15261;50.356;10.340;2023-01-24T09:55:37;6.93;;;6.23;;
27921;SDS011;15261;50.356;10.340;2023-01-24T09:58:10;8.63;;;7.80;;
27921;SDS011;15261;50.356;10.340;2023-01-24T10:00:43;9.00;;;8.10;;
27921;SDS011;15261;50.356;10.340;2023-01-24T10:03:14;11.73;;;10.13;;
27921;SDS011;15261;50.356;10.340;2023-01-24T10:05:46;23.93;;;14.03;;
27921;SDS011;15261;50.356;10.340;2023-01-24T10:08:34;17.00;;;10.17;;
27921;SDS011;15261;50.356;10.340;2023-01-24T10:24:39;6.70;;;5.73;;
27921;SDS011;15261;50.356;10.340;2023-01-24T10:27:16;6.10;;;5.50;;
27921;SDS011;15261;50.356;10.340;2023-01-24T10:29:52;6.60;;;5.90;;
27921;SDS011;15261;50.356;10.340;2023-01-24T10:32:28;6.50;;;5.90;;
27921;SDS011;15261;50.356;10.340;2023-01-24T10:35:01;7.20;;;6.40;;
27921;SDS011;15261;50.356;10.340;2023-01-24T10:37:38;5.47;;;4.90;;
27921;SDS011;15261;50.356;10.340;2023-01-24T10:40:14;5.70;;;5.10;;
27921;SDS011;15261;50.356;10.340;2023-01-24T10:42:42;4.93;;;4.43;;
27921;SDS011;15261;50.356;10.340;2023-01-24T10:47:59;6.97;;;5.47;;
27921;SDS011;15261;50.356;10.340;2023-01-24T10:50:35;6.30;;;5.70;;
27921;SDS011;15261;50.356;10.340;2023-01-24T10:53:11;5.43;;;4.93;;
27921;SDS011;15261;50.356;10.340;2023-01-24T10:55:38;5.70;;;5.10;;
27921;SDS011;15261;50.356;10.340;2023-01-24T10:58:27;5.23;;;4.40;;
27921;SDS011;15261;50.356;10.340;2023-01-24T11:01:05;4.63;;;4.23;;
27921;SDS011;15261;50.356;10.340;2023-01-24T11:03:45;4.83;;;4.37;;
27921;SDS011;15261;50.356;10.340;2023-01-24T11:06:46;4.80;;;4.20;;
27921;SDS011;15261;50.356;10.340;2023-01-24T11:09:11;4.47;;;3.97;;
27921;SDS011;15261;50.356;10.340;2023-01-24T11:11:40;4.77;;;4.37;;
27921;SDS011;15261;50.356;10.340;2023-01-24T11:14:15;4.97;;;4.50;;
27921;SDS011;15261;50.356;10.340;2023-01-24T11:16:43;5.23;;;4.73;;
27921;SDS011;15261;50.356;10.340;2023-01-24T11:19:44;5.30;;;4.80;;
27921;SDS011;15261;50.356;10.340;2023-01-24T11:22:23;5.73;;;5.17;;
27921;SDS011;15261;50.356;10.340;2023-01-24T11:24:53;5.10;;;4.60;;
27921;SDS011;15261;50.356;10.340;2023-01-24T11:27:22;4.90;;;4.40;;
27921;SDS011;15261;50.356;10.340;2023-01-24T11:30:13;5.40;;;4.90;;
27921;SDS011;15261;50.356;10.340;2023-01-24T11:35:27;5.60;;;5.00;;
27921;SDS011;15261;50.356;10.340;2023-01-24T11:38:21;5.30;;;4.80;;
27921;SDS011;15261;50.356;10.340;2023-01-24T11:49:34;5.23;;;4.70;;
27921;SDS011;15261;50.356;10.340;2023-01-24T12:00:35;5.80;;;5.30;;
27921;SDS011;15261;50.356;10.340;2023-01-24T12:03:16;5.57;;;5.07;;
27921;SDS011;15261;50.356;10.340;2023-01-24T12:08:57;6.83;;;6.10;;
27921;SDS011;15261;50.356;10.340;2023-01-24T12:11:37;9.30;;;7.13;;
27921;SDS011;15261;50.356;10.340;2023-01-24T12:14:23;8.07;;;7.00;;
27921;SDS011;15261;50.356;10.340;2023-01-24T12:17:14;8.10;;;6.50;;
27921;SDS011;15261;50.356;10.340;2023-01-24T12:22:42;5.90;;;5.40;;
27921;SDS011;15261;50.356;10.340;2023-01-24T12:25:22;7.43;;;6.67;;
27921;SDS011;15261;50.356;10.340;2023-01-24T12:27:55;7.47;;;6.77;;
27921;SDS011;15261;50.356;10.340;2023-01-24T12:35:46;5.67;;;5.17;;
27921;SDS011;15261;50.356;10.340;2023-01-24T12:38:18;6.20;;;5.70;;
27921;SDS011;15261;50.356;10.340;2023-01-24T12:43:57;6.77;;;6.00;;
27921;SDS011;15261;50.356;10.340;2023-01-24T12:46:33;6.70;;;6.03;;
27921;SDS011;15261;50.356;10.340;2023-01-24T12:49:22;7.67;;;6.87;;
27921;SDS011;15261;50.356;10.340;2023-01-24T12:52:17;7.20;;;6.47;;
27921;SDS011;15261;50.356;10.340;2023-01-24T12:54:47;7.10;;;6.40;;
27921;SDS011;15261;50.356;10.340;2023-01-24T12:57:26;7.20;;;6.50;;
27921;SDS011;15261;50.356;10.340;2023-01-24T12:59:59;7.53;;;6.73;;
27921;SDS011;15261;50.356;10.340;2023-01-24T13:08:02;5.83;;;5.33;;
27921;SDS011;15261;50.356;10.340;2023-01-24T13:13:27;6.93;;;6.23;;
27921;SDS011;15261;50.356;10.340;2023-01-24T13:26:46;6.60;;;5.90;;
27921;SDS011;15261;50.356;10.340;2023-01-24T13:29:26;7.20;;;6.33;;
27921;SDS011;15261;50.356;10.340;2023-01-24T13:32:11;5.53;;;5.00;;
27921;SDS011;15261;50.356;10.340;2023-01-24T13:34:43;6.00;;;5.50;;
27921;SDS011;15261;50.356;10.340;2023-01-24T13:37:25;6.20;;;5.60;;
27921;SDS011;15261;50.356;10.340;2023-01-24T13:42:55;6.43;;;5.83;;
27921;SDS011;15261;50.356;10.340;2023-01-24T13:47:48;7.53;;;6.67;;
27921;SDS011;15261;50.356;10.340;2023-01-24T13:52:50;8.13;;;7.33;;
27921;SDS011;15261;50.356;10.340;2023-01-24T14:00:31;5.30;;;4.80;;
27921;SDS011;15261;50.356;10.340;2023-01-24T14:03:03;5.80;;;5.30;;
27921;SDS011;15261;50.356;10.340;2023-01-24T14:05:48;5.83;;;5.33;;
27921;SDS011;15261;50.356;10.340;2023-01-24T14:08:31;5.43;;;4.87;;
27921;SDS011;15261;50.356;10.340;2023-01-24T14:13:53;5.70;;;5.10;;
27921;SDS011;15261;50.356;10.340;2023-01-24T14:27:18;5.40;;;4.90;;
27921;SDS011;15261;50.356;10.340;2023-01-24T14:29:48;8.53;;;7.67;;
27921;SDS011;15261;50.356;10.340;2023-01-24T14:32:25;9.37;;;8.20;;
27921;SDS011;15261;50.356;10.340;2023-01-24T14:37:44;10.37;;;9.20;;
27921;SDS011;15261;50.356;10.340;2023-01-24T14:40:24;11.17;;;10.07;;
27921;SDS011;15261;50.356;10.340;2023-01-24T14:42:56;11.93;;;10.73;;
27921;SDS011;15261;50.356;10.340;2023-01-24T14:45:25;9.03;;;7.87;;
27921;SDS011;15261;50.356;10.340;2023-01-24T14:51:14;7.80;;;7.10;;
27921;SDS011;15261;50.356;10.340;2023-01-24T14:53:47;7.40;;;6.70;;
27921;SDS011;15261;50.356;10.340;2023-01-24T14:56:17;14.77;;;12.97;;
27921;SDS011;15261;50.356;10.340;2023-01-24T15:02:01;75.57;;;49.80;;
27921;SDS011;15261;50.356;10.340;2023-01-24T15:04:29;116.17;;;72.83;;
27921;SDS011;15261;50.356;10.340;2023-01-24T15:10:11;98.87;;;67.73;;
27921;SDS011;15261;50.356;10.340;2023-01-24T15:12:38;89.40;;;62.20;;
27921;SDS011;15261;50.356;10.340;2023-01-24T15:21:25;33.77;;;27.47;;
27921;SDS011;15261;50.356;10.340;2023-01-24T15:23:55;35.33;;;28.50;;
27921;SDS011;15261;50.356;10.340;2023-01-24T15:28:55;32.40;;;26.40;;
27921;SDS011;15261;50.356;10.340;2023-01-24T15:31:22;34.67;;;30.60;;
27921;SDS011;15261;50.356;10.340;2023-01-24T15:33:56;48.27;;;40.27;;
27921;SDS011;15261;50.356;10.340;2023-01-24T15:36:27;24.67;;;22.03;;
27921;SDS011;15261;50.356;10.340;2023-01-24T15:38:57;13.83;;;12.33;;
27921;SDS011;15261;50.356;10.340;2023-01-24T15:44:11;9.10;;;8.20;;
27921;SDS011;15261;50.356;10.340;2023-01-24T15:46:41;8.57;;;7.67;;
27921;SDS011;15261;50.356;10.340;2023-01-24T15:49:29;9.00;;;8.10;;
27921;SDS011;15261;50.356;10.340;2023-01-24T15:54:34;10.07;;;8.87;;
27921;SDS011;15261;50.356;10.340;2023-01-24T15:57:02;8.83;;;8.03;;
27921;SDS011;15261;50.356;10.340;2023-01-24T15:59:43;7.70;;;7.00;;
27921;SDS011;15261;50.356;10.340;2023-01-24T16:02:11;7.90;;;6.87;;
27921;SDS011;15261;50.356;10.340;2023-01-24T16:04:38;10.23;;;8.63;;
27921;SDS011;15261;50.356;10.340;2023-01-24T16:07:04;10.37;;;8.67;;
27921;SDS011;15261;50.356;10.340;2023-01-24T16:09:30;7.17;;;6.30;;
27921;SDS011;15261;50.356;10.340;2023-01-24T16:11:56;8.60;;;6.57;;
27921;SDS011;15261;50.356;10.340;2023-01-24T16:14:23;6.57;;;5.87;;
27921;SDS011;15261;50.356;10.340;2023-01-24T16:16:50;7.63;;;6.83;;
27921;SDS011;15261;50.356;10.340;2023-01-24T16:19:25;7.10;;;6.40;;
27921;SDS011;15261;50.356;10.340;2023-01-24T16:21:51;11.37;;;10.23;;
27921;SDS011;15261;50.356;10.340;2023-01-24T16:24:17;14.97;;;11.67;;
27921;SDS011;15261;50.356;10.340;2023-01-24T16:29:38;17.53;;;14.63;;
27921;SDS011;15261;50.356;10.340;2023-01-24T16:32:15;11.60;;;10.03;;
27921;SDS011;15261;50.356;10.340;2023-01-24T16:34:47;9.87;;;8.87;;
27921;SDS011;15261;50.356;10.340;2023-01-24T16:37:13;17.00;;;13.97;;
27921;SDS011;15261;50.356;10.340;2023-01-24T16:39:39;13.67;;;12.30;;
27921;SDS011;15261;50.356;10.340;2023-01-24T16:42:07;9.73;;;8.27;;
27921;SDS011;15261;50.356;10.340;2023-01-24T16:44:37;8.77;;;7.87;;
27921;SDS011;15261;50.356;10.340;2023-01-24T16:47:03;8.83;;;7.93;;
27921;SDS011;15261;50.356;10.340;2023-01-24T16:49:28;8.47;;;7.57;;
27921;SDS011;15261;50.356;10.340;2023-01-24T16:51:54;8.33;;;7.03;;
27921;SDS011;15261;50.356;10.340;2023-01-24T16:54:20;7.97;;;7.20;;
27921;SDS011;15261;50.356;10.340;2023-01-24T16:56:45;8.50;;;7.63;;
27921;SDS011;15261;50.356;10.340;2023-01-24T16:59:12;8.37;;;7.40;;
27921;SDS011;15261;50.356;10.340;2023-01-24T17:01:37;8.93;;;7.37;;
27921;SDS011;15261;50.356;10.340;2023-01-24T17:04:05;8.40;;;7.60;;
27921;SDS011;15261;50.356;10.340;2023-01-24T17:06:30;8.90;;;6.87;;
27921;SDS011;15261;50.356;10.340;2023-01-24T17:08:56;8.03;;;7.23;;
27921;SDS011;15261;50.356;10.340;2023-01-24T17:11:21;8.93;;;7.47;;
27921;SDS011;15261;50.356;10.340;2023-01-24T17:13:48;7.90;;;7.10;;
27921;SDS011;15261;50.356;10.340;2023-01-24T17:16:15;9.23;;;8.33;;
27921;SDS011;15261;50.356;10.340;2023-01-24T17:18:40;8.07;;;7.27;;
27921;SDS011;15261;50.356;10.340;2023-01-24T17:21:07;8.10;;;7.10;;
27921;SDS011;15261;50.356;10.340;2023-01-24T17:23:37;8.73;;;7.83;;
27921;SDS011;15261;50.356;10.340;2023-01-24T17:26:07;9.07;;;8.17;;
27921;SDS011;15261;50.356;10.340;2023-01-24T17:28:35;9.67;;;8.10;;
27921;SDS011;15261;50.356;10.340;2023-01-24T17:31:11;9.33;;;7.77;;
27921;SDS011;15261;50.356;10.340;2023-01-24T17:33:42;10.93;;;9.13;;
27921;SDS011;15261;50.356;10.340;2023-01-24T17:36:08;14.33;;;11.20;;
27921;SDS011;15261;50.356;10.340;2023-01-24T17:38:36;14.63;;;10.87;;
27921;SDS011;15261;50.356;10.340;2023-01-24T17:41:02;22.10;;;15.20;;
27921;SDS011;15261;50.356;10.340;2023-01-24T17:43:28;13.97;;;12.40;;
27921;SDS011;15261;50.356;10.340;2023-01-24T17:45:55;11.63;;;10.00;;
27921;SDS011;15261;50.356;10.340;2023-01-24T17:48:23;11.57;;;9.93;;
27921;SDS011;15261;50.356;10.340;2023-01-24T17:50:50;10.90;;;9.47;;
27921;SDS011;15261;50.356;10.340;2023-01-24T17:53:15;10.87;;;9.23;;
27921;SDS011;15261;50.356;10.340;2023-01-24T17:55:42;8.77;;;7.80;;
27921;SDS011;15261;50.356;10.340;2023-01-24T17:58:08;9.17;;;8.27;;
27921;SDS011;15261;50.356;10.340;2023-01-24T18:00:34;9.67;;;8.43;;
27921;SDS011;15261;50.356;10.340;2023-01-24T18:03:00;9.37;;;8.37;;
27921;SDS011;15261;50.356;10.340;2023-01-24T18:05:25;10.00;;;8.97;;
27921;SDS011;15261;50.356;10.340;2023-01-24T18:07:51;11.13;;;8.40;;
27921;SDS011;15261;50.356;10.340;2023-01-24T18:10:16;9.03;;;7.90;;
27921;SDS011;15261;50.356;10.340;2023-01-24T18:12:42;9.17;;;8.00;;
27921;SDS011;15261;50.356;10.340;2023-01-24T18:15:08;8.83;;;7.47;;
27921;SDS011;15261;50.356;10.340;2023-01-24T18:17:35;9.53;;;8.13;;
27921;SDS011;15261;50.356;10.340;2023-01-24T18:20:01;9.70;;;8.00;;
27921;SDS011;15261;50.356;10.340;2023-01-24T18:22:28;8.63;;;7.53;;
27921;SDS011;15261;50.356;10.340;2023-01-24T18:24:53;9.97;;;8.10;;
27921;SDS011;15261;50.356;10.340;2023-01-24T18:27:19;8.60;;;7.70;;
27921;SDS011;15261;50.356;10.340;2023-01-24T18:29:45;8.70;;;7.80;;
27921;SDS011;15261;50.356;10.340;2023-01-24T18:32:11;8.90;;;8.00;;
27921;SDS011;15261;50.356;10.340;2023-01-24T18:34:36;8.73;;;7.50;;
27921;SDS011;15261;50.356;10.340;2023-01-24T18:37:02;10.03;;;8.37;;
27921;SDS011;15261;50.356;10.340;2023-01-24T18:39:27;8.93;;;7.47;;
27921;SDS011;15261;50.356;10.340;2023-01-24T18:41:53;11.13;;;8.20;;
27921;SDS011;15261;50.356;10.340;2023-01-24T18:44:19;9.60;;;8.27;;
27921;SDS011;15261;50.356;10.340;2023-01-24T18:46:44;8.43;;;7.60;;
27921;SDS011;15261;50.356;10.340;2023-01-24T18:49:10;9.13;;;7.60;;
27921;SDS011;15261;50.356;10.340;2023-01-24T18:51:36;10.23;;;8.90;;
27921;SDS011;15261;50.356;10.340;2023-01-24T18:54:03;9.57;;;8.57;;
27921;SDS011;15261;50.356;10.340;2023-01-24T18:56:31;10.37;;;8.37;;
27921;SDS011;15261;50.356;10.340;2023-01-24T18:58:57;8.87;;;7.83;;
27921;SDS011;15261;50.356;10.340;2023-01-24T19:01:23;9.27;;;7.97;;
27921;SDS011;15261;50.356;10.340;2023-01-24T19:03:50;13.03;;;10.60;;
27921;SDS011;15261;50.356;10.340;2023-01-24T19:06:24;28.33;;;15.43;;
27921;SDS011;15261;50.356;10.340;2023-01-24T19:08:51;12.87;;;8.93;;
27921;SDS011;15261;50.356;10.340;2023-01-24T19:11:27;12.03;;;9.13;;
27921;SDS011;15261;50.356;10.340;2023-01-24T19:13:53;10.83;;;8.37;;
27921;SDS011;15261;50.356;10.340;2023-01-24T19:16:20;9.60;;;8.60;;
27921;SDS011;15261;50.356;10.340;2023-01-24T19:18:47;9.13;;;7.97;;
27921;SDS011;15261;50.356;10.340;2023-01-24T19:21:15;10.13;;;8.70;;
27921;SDS011;15261;50.356;10.340;2023-01-24T19:23:42;10.27;;;8.90;;
27921;SDS011;15261;50.356;10.340;2023-01-24T19:26:12;9.37;;;8.40;;
27921;SDS011;15261;50.356;10.340;2023-01-24T19:28:39;8.67;;;7.77;;
27921;SDS011;15261;50.356;10.340;2023-01-24T19:31:05;8.83;;;7.93;;
27921;SDS011;15261;50.356;10.340;2023-01-24T19:36:23;9.47;;;8.47;;
27921;SDS011;15261;50.356;10.340;2023-01-24T19:38:53;8.53;;;7.73;;
27921;SDS011;15261;50.356;10.340;2023-01-24T19:41:21;8.17;;;7.37;;
27921;SDS011;15261;50.356;10.340;2023-01-24T19:43:47;8.23;;;7.07;;
27921;SDS011;15261;50.356;10.340;2023-01-24T19:46:13;8.53;;;7.43;;
27921;SDS011;15261;50.356;10.340;2023-01-24T19:48:39;8.77;;;7.83;;
27921;SDS011;15261;50.356;10.340;2023-01-24T19:51:05;9.33;;;8.07;;
27921;SDS011;15261;50.356;10.340;2023-01-24T19:56:55;9.70;;;8.70;;
27921;SDS011;15261;50.356;10.340;2023-01-24T19:59:21;8.40;;;7.53;;
27921;SDS011;15261;50.356;10.340;2023-01-24T20:01:47;9.57;;;8.20;;
27921;SDS011;15261;50.356;10.340;2023-01-24T20:04:13;9.43;;;8.27;;
27921;SDS011;15261;50.356;10.340;2023-01-24T20:06:38;8.83;;;7.93;;
27921;SDS011;15261;50.356;10.340;2023-01-24T20:09:04;8.80;;;7.93;;
27921;SDS011;15261;50.356;10.340;2023-01-24T20:14:51;8.50;;;7.60;;
27921;SDS011;15261;50.356;10.340;2023-01-24T20:17:16;10.37;;;8.77;;
27921;SDS011;15261;50.356;10.340;2023-01-24T20:19:42;12.07;;;9.43;;
27921;SDS011;15261;50.356;10.340;2023-01-24T20:22:07;66.03;;;46.10;;
27921;SDS011;15261;50.356;10.340;2023-01-24T20:24:33;18.60;;;14.13;;
27921;SDS011;15261;50.356;10.340;2023-01-24T20:26:59;15.03;;;12.57;;
27921;SDS011;15261;50.356;10.340;2023-01-24T20:29:24;21.10;;;18.67;;
27921;SDS011;15261;50.356;10.340;2023-01-24T20:31:50;17.13;;;15.27;;
27921;SDS011;15261;50.356;10.340;2023-01-24T20:34:16;10.80;;;9.57;;
27921;SDS011;15261;50.356;10.340;2023-01-24T20:36:42;12.03;;;10.37;;
27921;SDS011;15261;50.356;10.340;2023-01-24T20:39:08;11.70;;;10.33;;
27921;SDS011;15261;50.356;10.340;2023-01-24T20:41:35;11.77;;;10.03;;
27921;SDS011;15261;50.356;10.340;2023-01-24T20:44:03;9.77;;;8.67;;
27921;SDS011;15261;50.356;10.340;2023-01-24T20:46:29;9.83;;;8.83;;
27921;SDS011;15261;50.356;10.340;2023-01-24T20:48:55;12.73;;;10.20;;
27921;SDS011;15261;50.356;10.340;2023-01-24T20:51:22;14.13;;;12.23;;
27921;SDS011;15261;50.356;10.340;2023-01-24T20:53:58;11.43;;;10.23;;
27921;SDS011;15261;50.356;10.340;2023-01-24T20:56:24;11.87;;;10.40;;
27921;SDS011;15261;50.356;10.340;2023-01-24T20:58:51;11.27;;;10.07;;
27921;SDS011;15261;50.356;10.340;2023-01-24T21:01:18;10.27;;;9.00;;
27921;SDS011;15261;50.356;10.340;2023-01-24T21:03:45;11.23;;;10.03;;
27921;SDS011;15261;50.356;10.340;2023-01-24T21:06:12;12.47;;;10.23;;
27921;SDS011;15261;50.356;10.340;2023-01-24T21:08:40;9.93;;;8.87;;
27921;SDS011;15261;50.356;10.340;2023-01-24T21:11:07;12.10;;;9.57;;
27921;SDS011;15261;50.356;10.340;2023-01-24T21:13:39;10.73;;;9.50;;
27921;SDS011;15261;50.356;10.340;2023-01-24T21:16:08;10.20;;;9.20;;
27921;SDS011;15261;50.356;10.340;2023-01-24T21:18:35;11.83;;;9.47;;
27921;SDS011;15261;50.356;10.340;2023-01-24T21:21:01;10.63;;;9.53;;
27921;SDS011;15261;50.356;10.340;2023-01-24T21:23:27;10.10;;;9.00;;
27921;SDS011;15261;50.356;10.340;2023-01-24T21:25:53;10.40;;;9.10;;
27921;SDS011;15261;50.356;10.340;2023-01-24T21:28:19;10.73;;;9.63;;
27921;SDS011;15261;50.356;10.340;2023-01-24T21:30:45;11.47;;;10.17;;
27921;SDS011;15261;50.356;10.340;2023-01-24T21:33:11;10.97;;;9.33;;
27921;SDS011;15261;50.356;10.340;2023-01-24T21:35:36;10.80;;;9.70;;
27921;SDS011;15261;50.356;10.340;2023-01-24T21:38:19;10.50;;;9.40;;
27921;SDS011;15261;50.356;10.340;2023-01-24T21:40:45;12.73;;;10.63;;
27921;SDS011;15261;50.356;10.340;2023-01-24T21:43:29;11.47;;;10.27;;
27921;SDS011;15261;50.356;10.340;2023-01-24T21:45:54;11.30;;;9.80;;
27921;SDS011;15261;50.356;10.340;2023-01-24T21:48:20;11.47;;;9.57;;
27921;SDS011;15261;50.356;10.340;2023-01-24T21:51:05;11.43;;;10.13;;
27921;SDS011;15261;50.356;10.340;2023-01-24T21:53:31;13.80;;;12.03;;
27921;SDS011;15261;50.356;10.340;2023-01-24T21:59:37;12.87;;;10.50;;
27921;SDS011;15261;50.356;10.340;2023-01-24T22:02:15;19.57;;;13.67;;
27921;SDS011;15261;50.356;10.340;2023-01-24T22:04:45;28.17;;;18.53;;
27921;SDS011;15261;50.356;10.340;2023-01-24T22:07:12;17.53;;;12.43;;
27921;SDS011;15261;50.356;10.340;2023-01-24T22:09:40;12.70;;;10.33;;
27921;SDS011;15261;50.356;10.340;2023-01-24T22:12:06;11.77;;;10.47;;
27921;SDS011;15261;50.356;10.340;2023-01-24T22:14:32;11.23;;;10.00;;
27921;SDS011;15261;50.356;10.340;2023-01-24T22:17:00;10.83;;;9.73;;
27921;SDS011;15261;50.356;10.340;2023-01-24T22:19:28;16.87;;;13.17;;
27921;SDS011;15261;50.356;10.340;2023-01-24T22:24:48;13.57;;;10.87;;
27921;SDS011;15261;50.356;10.340;2023-01-24T22:27:16;15.53;;;13.53;;
27921;SDS011;15261;50.356;10.340;2023-01-24T22:29:44;14.23;;;12.50;;
27921;SDS011;15261;50.356;10.340;2023-01-24T22:32:11;15.30;;;11.40;;
27921;SDS011;15261;50.356;10.340;2023-01-24T22:34:38;11.50;;;10.30;;
27921;SDS011;15261;50.356;10.340;2023-01-24T22:39:45;9.60;;;8.60;;
27921;SDS011;15261;50.356;10.340;2023-01-24T22:42:10;9.87;;;8.87;;
27921;SDS011;15261;50.356;10.340;2023-01-24T22:44:36;11.47;;;10.07;;
27921;SDS011;15261;50.356;10.340;2023-01-24T22:47:01;11.57;;;9.77;;
27921;SDS011;15261;50.356;10.340;2023-01-24T22:49:27;11.30;;;9.90;;
27921;SDS011;15261;50.356;10.340;2023-01-24T22:51:53;11.83;;;10.20;;
27921;SDS011;15261;50.356;10.340;2023-01-24T22:54:18;19.93;;;12.73;;
27921;SDS011;15261;50.356;10.340;2023-01-24T22:56:44;16.33;;;12.37;;
27921;SDS011;15261;50.356;10.340;2023-01-24T22:59:09;18.70;;;13.83;;
27921;SDS011;15261;50.356;10.340;2023-01-24T23:04:27;46.30;;;22.27;;
27921;SDS011;15261;50.356;10.340;2023-01-24T23:06:53;58.37;;;26.37;;
27921;SDS011;15261;50.356;10.340;2023-01-24T23:09:19;44.27;;;21.53;;
27921;SDS011;15261;50.356;10.340;2023-01-24T23:11:44;54.47;;;24.43;;
27921;SDS011;15261;50.356;10.340;2023-01-24T23:14:11;29.53;;;19.43;;
27921;SDS011;15261;50.356;10.340;2023-01-24T23:17:06;21.73;;;16.27;;
27921;SDS011;15261;50.356;10.340;2023-01-24T23:19:35;28.77;;;18.00;;
27921;SDS011;15261;50.356;10.340;2023-01-24T23:22:20;26.97;;;16.53;;
27921;SDS011;15261;50.356;10.340;2023-01-24T23:24:48;24.40;;;15.93;;
27921;SDS011;15261;50.356;10.340;2023-01-24T23:27:18;17.07;;;13.23;;
27921;SDS011;15261;50.356;10.340;2023-01-24T23:29:50;14.57;;;10.80;;
27921;SDS011;15261;50.356;10.340;2023-01-24T23:32:46;12.40;;;10.37;;
27921;SDS011;15261;50.356;10.340;2023-01-24T23:35:15;14.73;;;11.23;;
27921;SDS011;15261;50.356;10.340;2023-01-24T23:37:41;54.97;;;23.53;;
27921;SDS011;15261;50.356;10.340;2023-01-24T23:40:08;12.90;;;11.43;;
27921;SDS011;15261;50.356;10.340;2023-01-24T23:42:36;11.63;;;10.00;;
27921;SDS011;15261;50.356;10.340;2023-01-24T23:45:02;11.87;;;10.60;;
27921;SDS011;15261;50.356;10.340;2023-01-24T23:47:27;11.37;;;10.17;;
27921;SDS011;15261;50.356;10.340;2023-01-24T23:49:53;12.80;;;10.53;;
27921;SDS011;15261;50.356;10.340;2023-01-24T23:52:19;11.20;;;10.03;;
27921;SDS011;15261;50.356;10.340;2023-01-24T23:54:45;12.17;;;10.10;;
27921;SDS011;15261;50.356;10.340;2023-01-24T23:57:11;11.80;;;10.33;;
27921;SDS011;15261;50.356;10.340;2023-01-24T23:59:36;12.07;;;10.87;;
